Curran, Illinois
Current Conditions -  °F | °C
As of 5:52 PM on Friday 19 Dec 2014 (Local Time) from KSPI Reporting Station
Scattered Clouds Scattered Clouds  
Wind Chill: 26°   Ceiling: Unl
Heat Index: 31°   Visibility: 10mi
Dew Point: 23°   Wind: 5mph
Humidity: 72%   Direction: 40°NE
Pressure: 30.29"   Gusts: NA
Location:  39.7375°N, 89.904°W
Report Text: KSPI 192352Z 04004KT 10SM SCT060 M01/M05 A3029 RMK AO2 SLP264 T10061050 10028 21011 56006
Loading
Personal Weather Stations






























Interactive Weather Map New forecast layout! Learn more

10-Day Weather Forecast

Advertisements
Track Severe Weather on mobile